sensor_id;sensor_type;location;lat;lon;timestamp;P1;durP1;ratioP1;P2;durP2;ratioP2
34765;SDS011;20984;43.508;1.504;2023-06-22T00:00:54;6.95;;;3.92;;
34765;SDS011;20984;43.508;1.504;2023-06-22T00:03:20;5.03;;;3.50;;
34765;SDS011;20984;43.508;1.504;2023-06-22T00:05:49;6.82;;;3.92;;
34765;SDS011;20984;43.508;1.504;2023-06-22T00:08:15;7.38;;;4.03;;
34765;SDS011;20984;43.508;1.504;2023-06-22T00:10:42;8.55;;;4.60;;
34765;SDS011;20984;43.508;1.504;2023-06-22T00:13:08;14.68;;;5.20;;
34765;SDS011;20984;43.508;1.504;2023-06-22T00:15:35;11.77;;;4.55;;
34765;SDS011;20984;43.508;1.504;2023-06-22T00:18:01;8.80;;;4.60;;
34765;SDS011;20984;43.508;1.504;2023-06-22T00:20:27;11.57;;;5.10;;
34765;SDS011;20984;43.508;1.504;2023-06-22T00:22:54;10.73;;;5.32;;
34765;SDS011;20984;43.508;1.504;2023-06-22T00:25:20;12.35;;;6.13;;
34765;SDS011;20984;43.508;1.504;2023-06-22T00:27:47;13.18;;;5.78;;
34765;SDS011;20984;43.508;1.504;2023-06-22T00:30:13;11.55;;;5.65;;
34765;SDS011;20984;43.508;1.504;2023-06-22T00:32:40;12.15;;;6.75;;
34765;SDS011;20984;43.508;1.504;2023-06-22T00:35:06;13.43;;;6.15;;
34765;SDS011;20984;43.508;1.504;2023-06-22T00:37:32;9.60;;;5.45;;
34765;SDS011;20984;43.508;1.504;2023-06-22T00:39:58;13.55;;;5.53;;
34765;SDS011;20984;43.508;1.504;2023-06-22T00:42:24;10.55;;;4.88;;
34765;SDS011;20984;43.508;1.504;2023-06-22T00:44:49;9.48;;;4.45;;
34765;SDS011;20984;43.508;1.504;2023-06-22T00:47:15;7.47;;;4.05;;
34765;SDS011;20984;43.508;1.504;2023-06-22T00:49:43;5.90;;;4.50;;
34765;SDS011;20984;43.508;1.504;2023-06-22T00:52:10;9.43;;;4.80;;
34765;SDS011;20984;43.508;1.504;2023-06-22T00:54:41;8.10;;;3.80;;
34765;SDS011;20984;43.508;1.504;2023-06-22T00:57:14;8.88;;;4.28;;
34765;SDS011;20984;43.508;1.504;2023-06-22T00:59:43;11.63;;;5.22;;
34765;SDS011;20984;43.508;1.504;2023-06-22T01:02:10;7.00;;;4.18;;
34765;SDS011;20984;43.508;1.504;2023-06-22T01:04:36;6.40;;;4.28;;
34765;SDS011;20984;43.508;1.504;2023-06-22T01:07:49;8.00;;;4.15;;
34765;SDS011;20984;43.508;1.504;2023-06-22T01:14:56;6.47;;;3.63;;
34765;SDS011;20984;43.508;1.504;2023-06-22T01:17:29;6.07;;;4.65;;
34765;SDS011;20984;43.508;1.504;2023-06-22T01:19:57;6.63;;;4.03;;
34765;SDS011;20984;43.508;1.504;2023-06-22T01:22:25;9.07;;;3.88;;
34765;SDS011;20984;43.508;1.504;2023-06-22T01:25:11;4.55;;;3.40;;
34765;SDS011;20984;43.508;1.504;2023-06-22T01:27:50;7.90;;;3.55;;
34765;SDS011;20984;43.508;1.504;2023-06-22T01:30:25;4.90;;;2.65;;
34765;SDS011;20984;43.508;1.504;2023-06-22T01:32:54;6.50;;;2.40;;
34765;SDS011;20984;43.508;1.504;2023-06-22T01:35:23;4.55;;;2.08;;
34765;SDS011;20984;43.508;1.504;2023-06-22T01:37:49;3.97;;;1.83;;
34765;SDS011;20984;43.508;1.504;2023-06-22T01:40:16;6.32;;;1.80;;
34765;SDS011;20984;43.508;1.504;2023-06-22T01:42:43;4.75;;;2.30;;
34765;SDS011;20984;43.508;1.504;2023-06-22T01:45:10;3.45;;;1.60;;
34765;SDS011;20984;43.508;1.504;2023-06-22T01:47:37;5.32;;;2.28;;
34765;SDS011;20984;43.508;1.504;2023-06-22T01:50:04;5.05;;;2.15;;
34765;SDS011;20984;43.508;1.504;2023-06-22T01:52:30;5.90;;;2.00;;
34765;SDS011;20984;43.508;1.504;2023-06-22T01:54:58;3.60;;;2.10;;
34765;SDS011;20984;43.508;1.504;2023-06-22T01:57:25;5.90;;;2.28;;
34765;SDS011;20984;43.508;1.504;2023-06-22T02:00:04;4.50;;;2.00;;
34765;SDS011;20984;43.508;1.504;2023-06-22T02:02:38;3.33;;;2.05;;
34765;SDS011;20984;43.508;1.504;2023-06-22T02:05:10;6.25;;;2.22;;
34765;SDS011;20984;43.508;1.504;2023-06-22T02:07:49;9.13;;;2.20;;
34765;SDS011;20984;43.508;1.504;2023-06-22T02:10:22;8.93;;;2.13;;
34765;SDS011;20984;43.508;1.504;2023-06-22T02:12:50;5.25;;;1.90;;
34765;SDS011;20984;43.508;1.504;2023-06-22T02:15:17;6.45;;;1.77;;
34765;SDS011;20984;43.508;1.504;2023-06-22T02:17:43;4.55;;;2.05;;
34765;SDS011;20984;43.508;1.504;2023-06-22T02:20:13;5.47;;;1.73;;
34765;SDS011;20984;43.508;1.504;2023-06-22T02:22:39;5.80;;;1.75;;
34765;SDS011;20984;43.508;1.504;2023-06-22T02:25:04;6.10;;;1.85;;
34765;SDS011;20984;43.508;1.504;2023-06-22T02:27:30;4.85;;;1.95;;
34765;SDS011;20984;43.508;1.504;2023-06-22T02:29:56;2.22;;;1.42;;
34765;SDS011;20984;43.508;1.504;2023-06-22T02:32:22;8.00;;;1.88;;
34765;SDS011;20984;43.508;1.504;2023-06-22T02:34:48;2.80;;;1.90;;
34765;SDS011;20984;43.508;1.504;2023-06-22T02:37:14;5.53;;;1.52;;
34765;SDS011;20984;43.508;1.504;2023-06-22T02:39:40;5.05;;;2.20;;
34765;SDS011;20984;43.508;1.504;2023-06-22T02:42:06;3.78;;;1.88;;
34765;SDS011;20984;43.508;1.504;2023-06-22T02:44:31;9.68;;;1.67;;
34765;SDS011;20984;43.508;1.504;2023-06-22T02:46:57;4.55;;;1.52;;
34765;SDS011;20984;43.508;1.504;2023-06-22T02:49:23;3.88;;;1.60;;
34765;SDS011;20984;43.508;1.504;2023-06-22T02:51:49;3.35;;;1.50;;
34765;SDS011;20984;43.508;1.504;2023-06-22T02:54:15;10.18;;;2.10;;
34765;SDS011;20984;43.508;1.504;2023-06-22T02:56:41;3.38;;;1.90;;
34765;SDS011;20984;43.508;1.504;2023-06-22T02:59:09;6.68;;;1.98;;
34765;SDS011;20984;43.508;1.504;2023-06-22T03:01:35;7.22;;;2.08;;
34765;SDS011;20984;43.508;1.504;2023-06-22T03:04:08;11.43;;;2.03;;
34765;SDS011;20984;43.508;1.504;2023-06-22T03:06:34;4.50;;;1.75;;
34765;SDS011;20984;43.508;1.504;2023-06-22T03:09:01;6.07;;;1.90;;
34765;SDS011;20984;43.508;1.504;2023-06-22T03:11:29;6.65;;;1.95;;
34765;SDS011;20984;43.508;1.504;2023-06-22T03:13:58;5.10;;;2.17;;
34765;SDS011;20984;43.508;1.504;2023-06-22T03:16:25;8.18;;;1.85;;
34765;SDS011;20984;43.508;1.504;2023-06-22T03:18:50;3.83;;;1.92;;
34765;SDS011;20984;43.508;1.504;2023-06-22T03:21:16;4.97;;;2.33;;
34765;SDS011;20984;43.508;1.504;2023-06-22T03:23:42;5.65;;;1.92;;
34765;SDS011;20984;43.508;1.504;2023-06-22T03:26:08;6.55;;;2.38;;
34765;SDS011;20984;43.508;1.504;2023-06-22T03:28:35;4.78;;;2.40;;
34765;SDS011;20984;43.508;1.504;2023-06-22T03:31:00;9.23;;;2.00;;
34765;SDS011;20984;43.508;1.504;2023-06-22T03:33:26;16.60;;;3.10;;
34765;SDS011;20984;43.508;1.504;2023-06-22T03:35:52;6.35;;;2.55;;
34765;SDS011;20984;43.508;1.504;2023-06-22T03:38:18;7.57;;;2.58;;
34765;SDS011;20984;43.508;1.504;2023-06-22T03:40:44;6.95;;;2.22;;
34765;SDS011;20984;43.508;1.504;2023-06-22T03:43:10;5.68;;;2.85;;
34765;SDS011;20984;43.508;1.504;2023-06-22T03:45:35;3.72;;;2.65;;
34765;SDS011;20984;43.508;1.504;2023-06-22T03:48:02;6.40;;;2.80;;
34765;SDS011;20984;43.508;1.504;2023-06-22T03:50:28;5.28;;;2.92;;
34765;SDS011;20984;43.508;1.504;2023-06-22T03:52:54;5.78;;;3.25;;
34765;SDS011;20984;43.508;1.504;2023-06-22T03:55:20;4.60;;;2.80;;
34765;SDS011;20984;43.508;1.504;2023-06-22T03:57:46;6.78;;;2.90;;
34765;SDS011;20984;43.508;1.504;2023-06-22T04:00:12;4.47;;;3.47;;
34765;SDS011;20984;43.508;1.504;2023-06-22T04:02:38;3.65;;;2.70;;
34765;SDS011;20984;43.508;1.504;2023-06-22T04:05:04;4.18;;;3.50;;
34765;SDS011;20984;43.508;1.504;2023-06-22T04:07:30;11.30;;;3.72;;
34765;SDS011;20984;43.508;1.504;2023-06-22T04:09:56;9.82;;;3.10;;
34765;SDS011;20984;43.508;1.504;2023-06-22T04:12:21;9.07;;;4.18;;
34765;SDS011;20984;43.508;1.504;2023-06-22T04:14:47;5.75;;;3.35;;
34765;SDS011;20984;43.508;1.504;2023-06-22T04:17:12;9.00;;;3.15;;
34765;SDS011;20984;43.508;1.504;2023-06-22T04:19:39;5.72;;;3.80;;
34765;SDS011;20984;43.508;1.504;2023-06-22T04:22:05;7.70;;;3.80;;
34765;SDS011;20984;43.508;1.504;2023-06-22T04:24:32;13.23;;;3.95;;
34765;SDS011;20984;43.508;1.504;2023-06-22T04:26:58;9.82;;;3.30;;
34765;SDS011;20984;43.508;1.504;2023-06-22T04:29:25;7.97;;;4.10;;
34765;SDS011;20984;43.508;1.504;2023-06-22T04:31:53;7.25;;;3.80;;
34765;SDS011;20984;43.508;1.504;2023-06-22T04:34:21;6.93;;;3.97;;
34765;SDS011;20984;43.508;1.504;2023-06-22T04:36:46;10.88;;;4.40;;
34765;SDS011;20984;43.508;1.504;2023-06-22T04:39:12;10.23;;;3.83;;
34765;SDS011;20984;43.508;1.504;2023-06-22T04:41:38;7.93;;;3.50;;
34765;SDS011;20984;43.508;1.504;2023-06-22T04:44:11;9.27;;;4.22;;
34765;SDS011;20984;43.508;1.504;2023-06-22T04:46:38;13.10;;;3.95;;
34765;SDS011;20984;43.508;1.504;2023-06-22T04:49:05;7.47;;;3.90;;
34765;SDS011;20984;43.508;1.504;2023-06-22T04:51:38;13.55;;;4.30;;
34765;SDS011;20984;43.508;1.504;2023-06-22T04:54:06;13.35;;;4.32;;
34765;SDS011;20984;43.508;1.504;2023-06-22T04:56:32;14.68;;;4.13;;
34765;SDS011;20984;43.508;1.504;2023-06-22T04:58:58;10.63;;;4.22;;
34765;SDS011;20984;43.508;1.504;2023-06-22T05:01:24;12.95;;;5.25;;
34765;SDS011;20984;43.508;1.504;2023-06-22T05:03:50;5.00;;;3.85;;
34765;SDS011;20984;43.508;1.504;2023-06-22T05:06:21;9.67;;;4.57;;
34765;SDS011;20984;43.508;1.504;2023-06-22T05:08:51;9.15;;;4.95;;
34765;SDS011;20984;43.508;1.504;2023-06-22T05:11:18;11.40;;;5.28;;
34765;SDS011;20984;43.508;1.504;2023-06-22T05:13:43;9.43;;;5.43;;
34765;SDS011;20984;43.508;1.504;2023-06-22T05:16:09;10.70;;;5.97;;
34765;SDS011;20984;43.508;1.504;2023-06-22T05:18:35;9.13;;;5.50;;
34765;SDS011;20984;43.508;1.504;2023-06-22T05:21:01;14.43;;;5.75;;
34765;SDS011;20984;43.508;1.504;2023-06-22T05:23:28;14.45;;;5.85;;
34765;SDS011;20984;43.508;1.504;2023-06-22T05:25:53;10.15;;;5.95;;
34765;SDS011;20984;43.508;1.504;2023-06-22T05:28:22;11.15;;;5.18;;
34765;SDS011;20984;43.508;1.504;2023-06-22T05:30:49;8.25;;;5.88;;
34765;SDS011;20984;43.508;1.504;2023-06-22T05:33:15;7.90;;;5.53;;
34765;SDS011;20984;43.508;1.504;2023-06-22T05:35:41;11.40;;;7.22;;
34765;SDS011;20984;43.508;1.504;2023-06-22T05:38:07;10.15;;;6.03;;
34765;SDS011;20984;43.508;1.504;2023-06-22T05:40:33;11.35;;;6.30;;
34765;SDS011;20984;43.508;1.504;2023-06-22T05:42:58;7.90;;;5.68;;
34765;SDS011;20984;43.508;1.504;2023-06-22T05:45:26;11.40;;;6.50;;
34765;SDS011;20984;43.508;1.504;2023-06-22T05:47:52;10.88;;;5.60;;
34765;SDS011;20984;43.508;1.504;2023-06-22T05:50:18;11.18;;;5.97;;
34765;SDS011;20984;43.508;1.504;2023-06-22T05:52:43;13.05;;;6.47;;
34765;SDS011;20984;43.508;1.504;2023-06-22T05:55:09;9.70;;;6.28;;
34765;SDS011;20984;43.508;1.504;2023-06-22T05:57:35;8.63;;;5.78;;
34765;SDS011;20984;43.508;1.504;2023-06-22T06:00:00;10.45;;;6.35;;
34765;SDS011;20984;43.508;1.504;2023-06-22T06:02:26;8.60;;;5.35;;
34765;SDS011;20984;43.508;1.504;2023-06-22T06:04:52;14.60;;;5.70;;
34765;SDS011;20984;43.508;1.504;2023-06-22T06:07:17;14.07;;;6.65;;
34765;SDS011;20984;43.508;1.504;2023-06-22T06:09:43;8.05;;;5.70;;
34765;SDS011;20984;43.508;1.504;2023-06-22T06:12:09;13.15;;;6.85;;
34765;SDS011;20984;43.508;1.504;2023-06-22T06:14:35;8.27;;;6.32;;
34765;SDS011;20984;43.508;1.504;2023-06-22T06:17:00;11.48;;;6.53;;
34765;SDS011;20984;43.508;1.504;2023-06-22T06:19:26;9.65;;;6.10;;
34765;SDS011;20984;43.508;1.504;2023-06-22T06:21:51;9.30;;;6.20;;
34765;SDS011;20984;43.508;1.504;2023-06-22T06:24:17;11.70;;;6.20;;
34765;SDS011;20984;43.508;1.504;2023-06-22T06:26:43;14.23;;;7.40;;
34765;SDS011;20984;43.508;1.504;2023-06-22T06:29:08;9.23;;;6.80;;
34765;SDS011;20984;43.508;1.504;2023-06-22T06:31:34;12.82;;;6.32;;
34765;SDS011;20984;43.508;1.504;2023-06-22T06:34:00;12.65;;;6.50;;
34765;SDS011;20984;43.508;1.504;2023-06-22T06:36:25;13.07;;;6.75;;
34765;SDS011;20984;43.508;1.504;2023-06-22T06:38:51;9.05;;;6.20;;
34765;SDS011;20984;43.508;1.504;2023-06-22T06:41:17;8.02;;;6.75;;
34765;SDS011;20984;43.508;1.504;2023-06-22T06:43:44;7.78;;;5.32;;
34765;SDS011;20984;43.508;1.504;2023-06-22T06:46:10;12.05;;;5.88;;
34765;SDS011;20984;43.508;1.504;2023-06-22T06:48:36;8.57;;;5.97;;
34765;SDS011;20984;43.508;1.504;2023-06-22T06:51:02;10.48;;;5.75;;
34765;SDS011;20984;43.508;1.504;2023-06-22T06:53:27;10.05;;;5.57;;
34765;SDS011;20984;43.508;1.504;2023-06-22T06:55:53;6.22;;;5.10;;
34765;SDS011;20984;43.508;1.504;2023-06-22T06:58:19;8.88;;;5.57;;
34765;SDS011;20984;43.508;1.504;2023-06-22T07:00:45;8.75;;;5.60;;
34765;SDS011;20984;43.508;1.504;2023-06-22T07:03:11;10.55;;;5.55;;
34765;SDS011;20984;43.508;1.504;2023-06-22T07:05:36;14.45;;;5.00;;
34765;SDS011;20984;43.508;1.504;2023-06-22T07:08:02;18.85;;;4.95;;
34765;SDS011;20984;43.508;1.504;2023-06-22T07:10:28;15.77;;;5.28;;
34765;SDS011;20984;43.508;1.504;2023-06-22T07:12:54;6.95;;;4.47;;
34765;SDS011;20984;43.508;1.504;2023-06-22T07:15:20;6.43;;;4.28;;
34765;SDS011;20984;43.508;1.504;2023-06-22T07:17:46;6.28;;;4.47;;
34765;SDS011;20984;43.508;1.504;2023-06-22T07:20:11;8.07;;;4.68;;
34765;SDS011;20984;43.508;1.504;2023-06-22T07:22:37;9.75;;;4.38;;
34765;SDS011;20984;43.508;1.504;2023-06-22T07:25:04;12.20;;;4.55;;
34765;SDS011;20984;43.508;1.504;2023-06-22T07:27:43;6.28;;;3.97;;
34765;SDS011;20984;43.508;1.504;2023-06-22T07:30:10;16.25;;;5.40;;
34765;SDS011;20984;43.508;1.504;2023-06-22T07:32:37;11.95;;;4.18;;
34765;SDS011;20984;43.508;1.504;2023-06-22T07:35:03;8.57;;;4.28;;
34765;SDS011;20984;43.508;1.504;2023-06-22T07:37:29;10.57;;;3.95;;
34765;SDS011;20984;43.508;1.504;2023-06-22T07:39:55;5.85;;;3.38;;
34765;SDS011;20984;43.508;1.504;2023-06-22T07:42:25;5.93;;;3.80;;
34765;SDS011;20984;43.508;1.504;2023-06-22T07:44:51;6.55;;;3.30;;
34765;SDS011;20984;43.508;1.504;2023-06-22T07:47:17;7.57;;;3.45;;
34765;SDS011;20984;43.508;1.504;2023-06-22T07:49:46;5.65;;;3.42;;
34765;SDS011;20984;43.508;1.504;2023-06-22T07:52:12;4.55;;;2.95;;
34765;SDS011;20984;43.508;1.504;2023-06-22T07:54:37;7.20;;;3.67;;
34765;SDS011;20984;43.508;1.504;2023-06-22T07:57:03;5.22;;;3.22;;
34765;SDS011;20984;43.508;1.504;2023-06-22T07:59:29;4.25;;;3.25;;
34765;SDS011;20984;43.508;1.504;2023-06-22T08:01:55;6.00;;;2.88;;
34765;SDS011;20984;43.508;1.504;2023-06-22T08:04:21;3.97;;;2.75;;
34765;SDS011;20984;43.508;1.504;2023-06-22T08:06:46;3.97;;;2.53;;
34765;SDS011;20984;43.508;1.504;2023-06-22T08:09:12;6.10;;;2.45;;
34765;SDS011;20984;43.508;1.504;2023-06-22T08:11:38;4.22;;;2.55;;
34765;SDS011;20984;43.508;1.504;2023-06-22T08:14:03;3.55;;;2.65;;
34765;SDS011;20984;43.508;1.504;2023-06-22T08:16:29;4.32;;;2.03;;
34765;SDS011;20984;43.508;1.504;2023-06-22T08:18:55;5.72;;;2.42;;
34765;SDS011;20984;43.508;1.504;2023-06-22T08:21:21;4.10;;;2.30;;
34765;SDS011;20984;43.508;1.504;2023-06-22T08:23:47;3.85;;;2.28;;
34765;SDS011;20984;43.508;1.504;2023-06-22T08:26:14;2.85;;;1.98;;
34765;SDS011;20984;43.508;1.504;2023-06-22T08:28:39;3.35;;;2.03;;
34765;SDS011;20984;43.508;1.504;2023-06-22T08:31:05;3.35;;;2.03;;
34765;SDS011;20984;43.508;1.504;2023-06-22T08:33:31;6.43;;;2.20;;
34765;SDS011;20984;43.508;1.504;2023-06-22T08:35:57;3.42;;;2.15;;
34765;SDS011;20984;43.508;1.504;2023-06-22T08:38:23;4.03;;;2.78;;
34765;SDS011;20984;43.508;1.504;2023-06-22T08:40:49;5.15;;;2.60;;
34765;SDS011;20984;43.508;1.504;2023-06-22T08:43:15;3.70;;;2.25;;
34765;SDS011;20984;43.508;1.504;2023-06-22T08:45:41;3.40;;;2.08;;
34765;SDS011;20984;43.508;1.504;2023-06-22T08:48:06;3.13;;;2.13;;
34765;SDS011;20984;43.508;1.504;2023-06-22T08:50:32;5.20;;;2.65;;
34765;SDS011;20984;43.508;1.504;2023-06-22T08:52:58;4.75;;;2.47;;
34765;SDS011;20984;43.508;1.504;2023-06-22T08:55:23;4.88;;;2.47;;
34765;SDS011;20984;43.508;1.504;2023-06-22T08:57:49;4.30;;;2.38;;
34765;SDS011;20984;43.508;1.504;2023-06-22T09:00:15;3.15;;;2.15;;
34765;SDS011;20984;43.508;1.504;2023-06-22T09:02:42;5.03;;;2.80;;
34765;SDS011;20984;43.508;1.504;2023-06-22T09:05:09;4.40;;;2.58;;
34765;SDS011;20984;43.508;1.504;2023-06-22T09:07:35;5.18;;;3.10;;
34765;SDS011;20984;43.508;1.504;2023-06-22T09:10:00;5.22;;;2.42;;
34765;SDS011;20984;43.508;1.504;2023-06-22T09:12:26;5.35;;;2.80;;
34765;SDS011;20984;43.508;1.504;2023-06-22T09:14:52;3.47;;;2.53;;
34765;SDS011;20984;43.508;1.504;2023-06-22T09:17:18;4.30;;;2.70;;
34765;SDS011;20984;43.508;1.504;2023-06-22T09:19:44;4.43;;;2.90;;
34765;SDS011;20984;43.508;1.504;2023-06-22T09:22:10;9.13;;;3.55;;
34765;SDS011;20984;43.508;1.504;2023-06-22T09:24:35;4.70;;;3.20;;
34765;SDS011;20984;43.508;1.504;2023-06-22T09:27:01;4.38;;;2.97;;
34765;SDS011;20984;43.508;1.504;2023-06-22T09:29:27;4.65;;;3.22;;
34765;SDS011;20984;43.508;1.504;2023-06-22T09:31:52;5.00;;;2.90;;
34765;SDS011;20984;43.508;1.504;2023-06-22T09:34:20;5.68;;;3.42;;
34765;SDS011;20984;43.508;1.504;2023-06-22T09:36:46;5.13;;;3.17;;
34765;SDS011;20984;43.508;1.504;2023-06-22T09:39:12;7.78;;;2.63;;
34765;SDS011;20984;43.508;1.504;2023-06-22T09:41:38;3.35;;;2.60;;
34765;SDS011;20984;43.508;1.504;2023-06-22T09:44:04;6.55;;;2.67;;
34765;SDS011;20984;43.508;1.504;2023-06-22T09:46:29;4.72;;;2.58;;
34765;SDS011;20984;43.508;1.504;2023-06-22T09:48:55;7.70;;;3.10;;
34765;SDS011;20984;43.508;1.504;2023-06-22T09:51:22;3.78;;;2.60;;
34765;SDS011;20984;43.508;1.504;2023-06-22T09:53:49;5.43;;;3.13;;
34765;SDS011;20984;43.508;1.504;2023-06-22T09:56:15;3.45;;;2.55;;
34765;SDS011;20984;43.508;1.504;2023-06-22T09:58:44;9.23;;;2.88;;
34765;SDS011;20984;43.508;1.504;2023-06-22T10:01:17;4.32;;;2.85;;
34765;SDS011;20984;43.508;1.504;2023-06-22T10:03:43;5.60;;;2.97;;
34765;SDS011;20984;43.508;1.504;2023-06-22T10:06:08;5.70;;;3.20;;
34765;SDS011;20984;43.508;1.504;2023-06-22T10:08:34;4.68;;;2.90;;
34765;SDS011;20984;43.508;1.504;2023-06-22T10:11:01;6.18;;;2.58;;
34765;SDS011;20984;43.508;1.504;2023-06-22T10:13:28;4.90;;;2.38;;
34765;SDS011;20984;43.508;1.504;2023-06-22T10:15:53;3.63;;;2.60;;
34765;SDS011;20984;43.508;1.504;2023-06-22T10:18:19;4.40;;;2.78;;
34765;SDS011;20984;43.508;1.504;2023-06-22T10:20:47;3.83;;;2.40;;
34765;SDS011;20984;43.508;1.504;2023-06-22T10:23:18;4.35;;;2.97;;
34765;SDS011;20984;43.508;1.504;2023-06-22T10:25:47;3.75;;;2.67;;
34765;SDS011;20984;43.508;1.504;2023-06-22T10:28:13;5.35;;;3.00;;
34765;SDS011;20984;43.508;1.504;2023-06-22T10:30:39;4.88;;;2.90;;
34765;SDS011;20984;43.508;1.504;2023-06-22T10:33:09;4.88;;;2.88;;
34765;SDS011;20984;43.508;1.504;2023-06-22T10:35:36;5.43;;;2.42;;
34765;SDS011;20984;43.508;1.504;2023-06-22T10:38:05;3.78;;;2.70;;
34765;SDS011;20984;43.508;1.504;2023-06-22T10:40:31;3.85;;;2.75;;
34765;SDS011;20984;43.508;1.504;2023-06-22T10:42:57;4.25;;;2.88;;
34765;SDS011;20984;43.508;1.504;2023-06-22T10:45:23;5.35;;;2.90;;
34765;SDS011;20984;43.508;1.504;2023-06-22T10:47:49;5.25;;;2.65;;
34765;SDS011;20984;43.508;1.504;2023-06-22T10:50:14;3.83;;;3.13;;
34765;SDS011;20984;43.508;1.504;2023-06-22T10:52:40;3.45;;;2.45;;
34765;SDS011;20984;43.508;1.504;2023-06-22T10:55:09;5.68;;;2.55;;
34765;SDS011;20984;43.508;1.504;2023-06-22T10:57:34;5.22;;;2.70;;
34765;SDS011;20984;43.508;1.504;2023-06-22T11:00:01;6.15;;;2.72;;
34765;SDS011;20984;43.508;1.504;2023-06-22T11:02:30;4.82;;;3.17;;
34765;SDS011;20984;43.508;1.504;2023-06-22T11:04:56;5.13;;;2.72;;
34765;SDS011;20984;43.508;1.504;2023-06-22T11:07:25;6.32;;;2.25;;
34765;SDS011;20984;43.508;1.504;2023-06-22T11:09:52;4.10;;;3.15;;
34765;SDS011;20984;43.508;1.504;2023-06-22T11:12:18;6.75;;;3.03;;
34765;SDS011;20984;43.508;1.504;2023-06-22T11:14:43;4.82;;;2.92;;
34765;SDS011;20984;43.508;1.504;2023-06-22T11:17:09;4.47;;;3.20;;
34765;SDS011;20984;43.508;1.504;2023-06-22T11:19:35;5.18;;;2.47;;
34765;SDS011;20984;43.508;1.504;2023-06-22T11:22:01;2.90;;;2.13;;
34765;SDS011;20984;43.508;1.504;2023-06-22T11:24:27;3.70;;;2.70;;
34765;SDS011;20984;43.508;1.504;2023-06-22T11:26:53;6.88;;;2.92;;
34765;SDS011;20984;43.508;1.504;2023-06-22T11:29:18;5.20;;;3.08;;
34765;SDS011;20984;43.508;1.504;2023-06-22T11:31:44;6.90;;;2.75;;
34765;SDS011;20984;43.508;1.504;2023-06-22T11:34:09;4.70;;;3.05;;
34765;SDS011;20984;43.508;1.504;2023-06-22T11:36:36;6.07;;;2.80;;
34765;SDS011;20984;43.508;1.504;2023-06-22T11:39:01;3.90;;;2.33;;
34765;SDS011;20984;43.508;1.504;2023-06-22T11:41:27;4.72;;;2.58;;
34765;SDS011;20984;43.508;1.504;2023-06-22T11:43:53;4.40;;;2.05;;
34765;SDS011;20984;43.508;1.504;2023-06-22T11:46:19;6.90;;;3.60;;
34765;SDS011;20984;43.508;1.504;2023-06-22T11:48:44;5.05;;;3.28;;
34765;SDS011;20984;43.508;1.504;2023-06-22T11:51:10;7.40;;;3.28;;
34765;SDS011;20984;43.508;1.504;2023-06-22T11:53:36;5.35;;;3.22;;
34765;SDS011;20984;43.508;1.504;2023-06-22T11:56:02;7.72;;;3.78;;
34765;SDS011;20984;43.508;1.504;2023-06-22T11:58:27;3.28;;;2.33;;
34765;SDS011;20984;43.508;1.504;2023-06-22T12:00:53;5.00;;;3.30;;
34765;SDS011;20984;43.508;1.504;2023-06-22T12:03:19;5.97;;;3.22;;
34765;SDS011;20984;43.508;1.504;2023-06-22T12:05:46;6.53;;;3.20;;
34765;SDS011;20984;43.508;1.504;2023-06-22T12:08:12;4.63;;;2.88;;
34765;SDS011;20984;43.508;1.504;2023-06-22T12:10:39;5.60;;;2.90;;
34765;SDS011;20984;43.508;1.504;2023-06-22T12:13:04;4.97;;;2.97;;
34765;SDS011;20984;43.508;1.504;2023-06-22T12:15:30;5.88;;;2.60;;
34765;SDS011;20984;43.508;1.504;2023-06-22T12:17:56;3.80;;;2.70;;
34765;SDS011;20984;43.508;1.504;2023-06-22T12:20:21;7.88;;;3.05;;
34765;SDS011;20984;43.508;1.504;2023-06-22T12:22:47;3.80;;;2.83;;
34765;SDS011;20984;43.508;1.504;2023-06-22T12:25:13;4.45;;;2.90;;
34765;SDS011;20984;43.508;1.504;2023-06-22T12:27:39;5.28;;;3.00;;
34765;SDS011;20984;43.508;1.504;2023-06-22T12:30:04;5.65;;;2.60;;
34765;SDS011;20984;43.508;1.504;2023-06-22T12:32:30;4.13;;;2.80;;
34765;SDS011;20984;43.508;1.504;2023-06-22T12:34:56;4.05;;;2.75;;
34765;SDS011;20984;43.508;1.504;2023-06-22T12:37:22;3.80;;;2.40;;
34765;SDS011;20984;43.508;1.504;2023-06-22T12:39:48;5.55;;;2.85;;
34765;SDS011;20984;43.508;1.504;2023-06-22T12:42:15;3.97;;;2.78;;
34765;SDS011;20984;43.508;1.504;2023-06-22T12:44:40;3.95;;;2.70;;
34765;SDS011;20984;43.508;1.504;2023-06-22T12:47:06;3.45;;;2.65;;
34765;SDS011;20984;43.508;1.504;2023-06-22T12:49:36;3.47;;;2.28;;
34765;SDS011;20984;43.508;1.504;2023-06-22T12:52:02;5.15;;;2.88;;
34765;SDS011;20984;43.508;1.504;2023-06-22T12:54:28;6.25;;;2.58;;
34765;SDS011;20984;43.508;1.504;2023-06-22T12:56:55;4.95;;;2.75;;
34765;SDS011;20984;43.508;1.504;2023-06-22T12:59:21;4.57;;;3.10;;
34765;SDS011;20984;43.508;1.504;2023-06-22T13:01:46;5.15;;;2.85;;
34765;SDS011;20984;43.508;1.504;2023-06-22T13:04:12;6.00;;;2.75;;
34765;SDS011;20984;43.508;1.504;2023-06-22T13:06:40;5.35;;;2.67;;
34765;SDS011;20984;43.508;1.504;2023-06-22T13:09:06;4.70;;;2.20;;
34765;SDS011;20984;43.508;1.504;2023-06-22T13:11:32;4.00;;;2.45;;
34765;SDS011;20984;43.508;1.504;2023-06-22T13:13:58;4.20;;;2.55;;
34765;SDS011;20984;43.508;1.504;2023-06-22T13:16:23;4.72;;;2.45;;
34765;SDS011;20984;43.508;1.504;2023-06-22T13:18:49;3.67;;;2.50;;
34765;SDS011;20984;43.508;1.504;2023-06-22T13:21:14;5.45;;;2.95;;
34765;SDS011;20984;43.508;1.504;2023-06-22T13:23:41;5.20;;;2.92;;
34765;SDS011;20984;43.508;1.504;2023-06-22T13:26:07;3.70;;;2.58;;
34765;SDS011;20984;43.508;1.504;2023-06-22T13:28:32;4.95;;;3.17;;
34765;SDS011;20984;43.508;1.504;2023-06-22T13:30:58;8.30;;;3.55;;
34765;SDS011;20984;43.508;1.504;2023-06-22T13:33:24;3.95;;;2.95;;
34765;SDS011;20984;43.508;1.504;2023-06-22T13:35:50;6.10;;;3.10;;
34765;SDS011;20984;43.508;1.504;2023-06-22T13:38:15;4.28;;;2.92;;
34765;SDS011;20984;43.508;1.504;2023-06-22T13:40:42;4.60;;;2.45;;
34765;SDS011;20984;43.508;1.504;2023-06-22T13:43:08;4.47;;;2.92;;
34765;SDS011;20984;43.508;1.504;2023-06-22T13:45:34;3.17;;;1.98;;
34765;SDS011;20984;43.508;1.504;2023-06-22T13:47:59;3.75;;;1.98;;
34765;SDS011;20984;43.508;1.504;2023-06-22T13:50:25;4.10;;;2.20;;
34765;SDS011;20984;43.508;1.504;2023-06-22T13:52:51;7.38;;;2.88;;
34765;SDS011;20984;43.508;1.504;2023-06-22T13:55:17;3.65;;;2.50;;
34765;SDS011;20984;43.508;1.504;2023-06-22T13:57:44;5.00;;;2.33;;
34765;SDS011;20984;43.508;1.504;2023-06-22T14:00:10;5.40;;;2.05;;
34765;SDS011;20984;43.508;1.504;2023-06-22T14:02:37;4.40;;;2.88;;
34765;SDS011;20984;43.508;1.504;2023-06-22T14:05:04;3.95;;;2.38;;
34765;SDS011;20984;43.508;1.504;2023-06-22T14:07:30;6.25;;;3.78;;
34765;SDS011;20984;43.508;1.504;2023-06-22T14:09:56;5.15;;;3.00;;
34765;SDS011;20984;43.508;1.504;2023-06-22T14:12:22;4.90;;;2.88;;
34765;SDS011;20984;43.508;1.504;2023-06-22T14:14:48;4.45;;;2.95;;
34765;SDS011;20984;43.508;1.504;2023-06-22T14:17:14;7.10;;;3.47;;
34765;SDS011;20984;43.508;1.504;2023-06-22T14:19:39;5.20;;;3.42;;
34765;SDS011;20984;43.508;1.504;2023-06-22T14:22:05;8.35;;;3.40;;
34765;SDS011;20984;43.508;1.504;2023-06-22T14:24:31;7.88;;;3.50;;
34765;SDS011;20984;43.508;1.504;2023-06-22T14:26:57;4.18;;;2.75;;
34765;SDS011;20984;43.508;1.504;2023-06-22T14:29:22;4.90;;;2.78;;
34765;SDS011;20984;43.508;1.504;2023-06-22T14:31:48;3.70;;;2.67;;
34765;SDS011;20984;43.508;1.504;2023-06-22T14:34:14;6.18;;;2.85;;
34765;SDS011;20984;43.508;1.504;2023-06-22T14:36:40;4.28;;;2.80;;
34765;SDS011;20984;43.508;1.504;2023-06-22T14:39:06;6.32;;;2.83;;
34765;SDS011;20984;43.508;1.504;2023-06-22T14:41:32;12.88;;;2.80;;
34765;SDS011;20984;43.508;1.504;2023-06-22T14:43:57;6.32;;;2.30;;
34765;SDS011;20984;43.508;1.504;2023-06-22T14:46:23;8.70;;;2.65;;